Time;durP1;ratioP1;P1;durP2;ratioP2;P2;SDS_P1;SDS_P2;PMS_P1;PMS_P2;Temp;Humidity;BMP_temperature;BMP_pressure;BME280_temperature;BME280_humidity;BME280_pressure;Samples;Min_cycle;Max_cycle;Signal;HPM_P1;HPM_P2
2022/07/03 00:01:25;;;;;;;1.67;1.57;;;19.40;56.00;;;;;;960443;147;27425;-72
2022/07/03 00:03:51;;;;;;;1.77;1.47;;;19.40;56.10;;;;;;942066;150;27304;-72
2022/07/03 00:06:18;;;;;;;2.65;1.57;;;19.30;56.10;;;;;;950960;149;27353;-72
2022/07/03 00:08:44;;;;;;;1.50;1.40;;;19.30;56.20;;;;;;943965;150;27363;-72
2022/07/03 00:11:11;;;;;;;1.70;1.60;;;19.30;56.30;;;;;;959829;147;28431;-72
2022/07/03 00:13:37;;;;;;;1.47;1.37;;;19.30;56.40;;;;;;938720;150;27395;-72
2022/07/03 00:16:04;;;;;;;1.70;1.32;;;19.30;56.40;;;;;;954697;148;28418;-72
2022/07/03 00:18:31;;;;;;;1.55;1.40;;;19.30;56.50;;;;;;956285;148;27319;-72
2022/07/03 00:21:00;;;;;;;1.80;1.65;;;19.30;56.50;;;;;;939168;151;27472;-72
2022/07/03 00:23:27;;;;;;;2.65;2.42;;;19.30;56.60;;;;;;956145;149;27353;-72
2022/07/03 00:25:53;;;;;;;7.75;4.33;;;19.30;56.60;;;;;;936887;151;27355;-72
2022/07/03 00:28:20;;;;;;;5.30;4.80;;;19.20;56.70;;;;;;954998;149;27408;-72
2022/07/03 00:30:47;;;;;;;2.87;2.67;;;19.20;56.80;;;;;;938224;151;27363;-72
2022/07/03 00:33:13;;;;;;;1.95;1.85;;;19.20;56.90;;;;;;955189;148;27348;-72
2022/07/03 00:35:40;;;;;;;2.92;2.25;;;19.20;56.90;;;;;;937487;151;27472;-71
2022/07/03 00:38:06;;;;;;;1.85;1.75;;;19.20;57.00;;;;;;955259;148;27307;-72
2022/07/03 00:40:33;;;;;;;1.70;1.60;;;19.20;57.10;;;;;;936657;151;27347;-72
2022/07/03 00:42:59;;;;;;;1.90;1.80;;;19.20;57.30;;;;;;936008;151;27385;-72
2022/07/03 00:45:26;;;;;;;1.67;1.57;;;19.10;57.30;;;;;;951941;148;27463;-72
2022/07/03 00:47:53;;;;;;;1.60;1.50;;;19.10;57.40;;;;;;937429;151;27475;-72
2022/07/03 00:50:19;;;;;;;1.47;1.37;;;19.10;57.30;;;;;;937786;151;27344;-72
2022/07/03 00:52:46;;;;;;;1.70;1.60;;;19.10;57.40;;;;;;943352;150;27761;-72
2022/07/03 00:55:15;;;;;;;1.65;1.55;;;19.00;57.60;;;;;;945506;150;27304;-71
2022/07/03 00:57:45;;;;;;;1.40;1.30;;;19.00;57.90;;;;;;943589;150;27393;-72
2022/07/03 01:00:12;;;;;;;1.73;1.63;;;19.00;58.00;;;;;;944651;150;27458;-72
2022/07/03 01:02:41;;;;;;;2.02;1.67;;;19.00;57.90;;;;;;944261;150;27342;-72
2022/07/03 01:05:16;;;;;;;1.32;1.22;;;18.90;57.90;;;;;;943305;150;27336;-71
2022/07/03 01:08:04;;;;;;;1.55;1.42;;;18.90;57.90;;;;;;945982;150;27574;-72
2022/07/03 01:10:36;;;;;;;3.33;1.70;;;18.90;58.00;;;;;;954957;148;27309;-71
2022/07/03 01:13:18;;;;;;;1.90;1.80;;;18.90;58.00;;;;;;957019;148;27700;-72
2022/07/03 01:16:06;;;;;;;1.72;1.62;;;18.80;58.00;;;;;;953624;148;27305;-72
2022/07/03 01:18:33;;;;;;;1.37;1.27;;;18.80;58.20;;;;;;954903;148;27287;-72
2022/07/03 01:21:02;;;;;;;3.20;1.57;;;18.70;58.20;;;;;;956279;148;27445;-72
2022/07/03 01:23:32;;;;;;;2.70;1.83;;;18.70;58.40;;;;;;953817;148;27318;-72
2022/07/03 01:25:58;;;;;;;2.77;1.57;;;18.60;58.60;;;;;;954877;148;27342;-71
2022/07/03 01:28:24;;;;;;;1.70;1.60;;;18.60;58.60;;;;;;955972;148;28038;-72
2022/07/03 01:30:54;;;;;;;1.60;1.50;;;18.60;58.80;;;;;;953446;148;27293;-72
2022/07/03 01:33:26;;;;;;;1.70;1.60;;;18.50;58.80;;;;;;956740;148;27314;-72
2022/07/03 01:36:02;;;;;;;1.75;1.65;;;18.50;58.90;;;;;;953401;148;27324;-73
2022/07/03 01:38:28;;;;;;;2.00;1.77;;;18.50;59.00;;;;;;954750;148;28885;-73
2022/07/03 01:40:55;;;;;;;1.57;1.47;;;18.40;59.10;;;;;;955843;148;27324;-73
2022/07/03 01:43:21;;;;;;;1.80;1.70;;;18.40;59.20;;;;;;956686;148;27344;-72
2022/07/03 01:45:48;;;;;;;1.60;1.50;;;18.40;59.30;;;;;;955838;148;27376;-72
2022/07/03 01:48:14;;;;;;;1.80;1.70;;;18.30;59.40;;;;;;954833;148;27461;-72
2022/07/03 01:50:41;;;;;;;1.70;1.60;;;18.30;59.60;;;;;;956073;148;27414;-73
2022/07/03 01:53:08;;;;;;;3.30;2.20;;;18.20;59.70;;;;;;959263;148;27399;-73
2022/07/03 01:55:34;;;;;;;1.67;1.57;;;18.20;59.80;;;;;;957467;148;27397;-73
2022/07/03 01:58:01;;;;;;;1.63;1.53;;;18.20;59.90;;;;;;957229;148;27275;-73
2022/07/03 02:00:27;;;;;;;1.73;1.63;;;18.10;60.00;;;;;;955943;148;27341;-73
2022/07/03 02:03:03;;;;;;;3.12;1.80;;;18.10;60.40;;;;;;957510;148;27368;-73
2022/07/03 02:05:39;;;;;;;1.55;1.45;;;18.10;60.30;;;;;;957141;148;27368;-72
2022/07/03 02:08:24;;;;;;;1.90;1.80;;;18.00;61.10;;;;;;956073;148;27410;-74
2022/07/03 02:11:00;;;;;;;1.70;1.60;;;18.00;60.50;;;;;;957248;148;28172;-74
2022/07/03 02:13:27;;;;;;;2.27;1.90;;;17.90;60.60;;;;;;942140;148;27317;-74
2022/07/03 02:15:53;;;;;;;2.10;1.70;;;17.90;60.70;;;;;;956471;148;27728;-74
2022/07/03 02:18:28;;;;;;;1.97;1.87;;;17.90;61.00;;;;;;957611;148;27414;-73
2022/07/03 02:21:04;;;;;;;2.20;1.67;;;17.80;61.20;;;;;;954703;148;27326;-74
2022/07/03 02:23:33;;;;;;;2.17;1.97;;;17.80;61.60;;;;;;955551;148;27411;-74
2022/07/03 02:25:59;;;;;;;2.13;2.00;;;17.80;62.00;;;;;;953025;148;27275;-73
2022/07/03 02:28:35;;;;;;;4.70;2.00;;;17.80;62.40;;;;;;954575;148;27329;-73
2022/07/03 02:31:02;;;;;;;2.33;2.13;;;17.70;63.00;;;;;;949646;148;27367;-69
2022/07/03 02:33:28;;;;;;;3.13;2.10;;;17.80;63.40;;;;;;954220;148;27309;-69
2022/07/03 02:35:55;;;;;;;2.20;2.00;;;17.70;64.30;;;;;;954769;148;27318;-70
2022/07/03 02:38:21;;;;;;;2.03;1.93;;;17.70;64.40;;;;;;954813;148;27323;-71
2022/07/03 02:41:06;;;;;;;1.77;1.67;;;17.70;64.80;;;;;;954964;148;27343;-68
2022/07/03 02:43:39;;;;;;;3.27;1.82;;;17.80;65.00;;;;;;954456;148;27384;-69
2022/07/03 02:48:53;;;;;;;1.90;1.70;;;17.70;65.30;;;;;;954306;148;27373;-69
2022/07/03 02:51:19;;;;;;;2.00;1.90;;;17.80;65.40;;;;;;954476;148;27439;-69
2022/07/03 02:53:48;;;;;;;2.03;1.93;;;17.70;65.50;;;;;;937841;151;27317;-71
2022/07/03 02:56:15;;;;;;;2.30;2.10;;;17.70;65.50;;;;;;954933;148;27360;-70
2022/07/03 02:59:18;;;;;;;2.07;1.80;;;17.70;65.50;;;;;;937297;151;27922;-70
2022/07/03 03:01:57;;;;;;;1.80;1.70;;;17.70;65.70;;;;;;932637;152;28399;-69
2022/07/03 03:04:30;;;;;;;1.90;1.80;;;17.60;65.40;;;;;;952697;148;27316;-69
2022/07/03 03:06:56;;;;;;;1.80;1.70;;;17.60;65.30;;;;;;959769;148;27298;-69
2022/07/03 03:09:28;;;;;;;1.70;1.60;;;17.50;65.30;;;;;;929821;152;27920;-71
2022/07/03 03:11:55;;;;;;;2.10;1.63;;;17.50;65.40;;;;;;948914;148;27384;-70
2022/07/03 03:14:22;;;;;;;1.67;1.57;;;17.40;65.50;;;;;;934751;152;27364;-69
2022/07/03 03:16:48;;;;;;;1.80;1.70;;;17.40;65.50;;;;;;953891;148;27288;-69
2022/07/03 03:19:15;;;;;;;1.97;1.87;;;17.30;65.90;;;;;;938273;151;27429;-69
2022/07/03 03:21:41;;;;;;;2.07;1.93;;;17.30;66.00;;;;;;957063;148;27402;-72
2022/07/03 03:24:08;;;;;;;2.17;2.00;;;17.20;66.00;;;;;;951714;148;27442;-69
2022/07/03 03:26:35;;;;;;;2.27;2.07;;;17.20;66.10;;;;;;934750;152;27312;-69
2022/07/03 03:29:01;;;;;;;1.80;1.70;;;17.10;66.10;;;;;;955413;148;27399;-69
2022/07/03 03:31:28;;;;;;;2.97;2.07;;;17.10;66.30;;;;;;955825;148;27322;-69
2022/07/03 03:33:54;;;;;;;1.80;1.70;;;17.10;66.60;;;;;;938205;151;27444;-71
2022/07/03 03:36:21;;;;;;;1.93;1.83;;;17.00;66.70;;;;;;934855;151;27465;-70
2022/07/03 03:38:48;;;;;;;1.90;1.80;;;17.00;66.90;;;;;;953986;148;27488;-72
2022/07/03 03:41:14;;;;;;;3.80;1.60;;;16.90;67.00;;;;;;955105;148;27346;-69
2022/07/03 03:43:41;;;;;;;1.80;1.70;;;16.90;67.20;;;;;;939346;151;28165;-69
2022/07/03 03:46:07;;;;;;;1.83;1.70;;;16.90;67.50;;;;;;956790;148;27392;-70
2022/07/03 03:48:34;;;;;;;2.03;1.90;;;16.90;67.40;;;;;;939698;151;27881;-73
2022/07/03 03:51:00;;;;;;;2.03;1.90;;;16.80;67.60;;;;;;943112;151;27408;-69
2022/07/03 03:53:27;;;;;;;2.23;1.60;;;16.80;67.90;;;;;;941809;151;27377;-69
2022/07/03 03:56:00;;;;;;;2.00;1.83;;;16.80;68.00;;;;;;945001;150;27381;-69
2022/07/03 03:58:26;;;;;;;1.87;1.77;;;16.80;68.20;;;;;;944932;150;27308;-69
2022/07/03 04:00:53;;;;;;;2.10;1.70;;;16.80;68.20;;;;;;941707;151;27438;-70
2022/07/03 04:03:20;;;;;;;7.47;3.03;;;16.80;69.10;;;;;;939110;151;27356;-73
2022/07/03 04:05:46;;;;;;;2.47;2.00;;;16.80;68.50;;;;;;939400;151;27364;-70
2022/07/03 04:08:13;;;;;;;1.70;1.60;;;16.80;68.50;;;;;;939439;151;27426;-70
2022/07/03 04:10:39;;;;;;;2.00;1.90;;;16.90;68.60;;;;;;934020;152;27383;-69
2022/07/03 04:13:06;;;;;;;1.70;1.60;;;16.90;68.60;;;;;;952475;149;27266;-69
2022/07/03 04:15:33;;;;;;;2.52;1.90;;;16.90;68.80;;;;;;932911;151;27357;-73
2022/07/03 04:17:59;;;;;;;1.90;1.80;;;17.00;68.80;;;;;;942133;149;27432;-69
2022/07/03 04:20:26;;;;;;;1.90;1.80;;;17.00;69.10;;;;;;917681;153;27279;-69
2022/07/03 04:22:52;;;;;;;1.83;1.70;;;17.10;69.20;;;;;;940170;149;27405;-69
2022/07/03 04:25:19;;;;;;;2.27;2.07;;;17.20;69.50;;;;;;917361;153;27380;-72
2022/07/03 04:27:46;;;;;;;1.93;1.80;;;17.20;69.50;;;;;;942438;148;27358;-70
2022/07/03 04:30:13;;;;;;;1.90;1.80;;;17.30;68.80;;;;;;919034;152;27366;-70
2022/07/03 04:32:39;;;;;;;2.10;1.90;;;17.40;69.70;;;;;;917288;153;27457;-69
2022/07/03 04:35:06;;;;;;;2.12;1.80;;;17.50;69.70;;;;;;941014;150;27354;-69
2022/07/03 04:37:32;;;;;;;1.90;1.80;;;17.60;69.70;;;;;;942593;149;27320;-70
2022/07/03 04:39:59;;;;;;;1.65;1.55;;;17.70;69.70;;;;;;919168;153;27430;-69
2022/07/03 04:42:25;;;;;;;2.23;2.10;;;17.80;69.90;;;;;;919620;153;27318;-71
2022/07/03 04:44:52;;;;;;;3.42;2.00;;;17.90;69.80;;;;;;943099;149;27352;-69
2022/07/03 04:47:19;;;;;;;2.00;1.80;;;18.00;69.80;;;;;;945461;150;27414;-69
2022/07/03 04:49:45;;;;;;;1.80;1.70;;;18.20;70.00;;;;;;916055;152;27360;-70
2022/07/03 04:52:12;;;;;;;2.20;2.00;;;18.30;70.10;;;;;;920466;153;27339;-71
2022/07/03 04:54:38;;;;;;;1.82;1.72;;;18.50;70.50;;;;;;942586;149;27327;-71
2022/07/03 04:57:05;;;;;;;1.60;1.50;;;18.80;71.40;;;;;;921498;152;27453;-72
2022/07/03 04:59:32;;;;;;;1.95;1.50;;;19.20;72.50;;;;;;918174;153;27379;-69
2022/07/03 05:01:58;;;;;;;1.60;1.45;;;19.70;73.30;;;;;;940484;149;27343;-70
2022/07/03 05:04:25;;;;;;;1.47;1.37;;;20.30;73.60;;;;;;917460;153;27345;-70
2022/07/03 05:06:51;;;;;;;1.70;1.60;;;21.10;73.30;;;;;;940535;149;27429;-70
2022/07/03 05:09:18;;;;;;;1.42;1.37;;;21.80;72.50;;;;;;916753;153;27317;-72
2022/07/03 05:11:45;;;;;;;1.40;1.30;;;22.70;71.50;;;;;;942509;150;27350;-70
2022/07/03 05:14:11;;;;;;;1.67;1.50;;;23.50;69.90;;;;;;916684;153;27362;-70
2022/07/03 05:16:38;;;;;;;1.60;1.50;;;24.30;68.20;;;;;;934757;151;27445;-70
2022/07/03 05:19:04;;;;;;;1.37;1.30;;;25.20;66.30;;;;;;935679;151;27341;-71
2022/07/03 05:21:31;;;;;;;1.90;1.80;;;26.00;64.80;;;;;;931604;152;27408;-72
2022/07/03 05:23:58;;;;;;;1.75;1.65;;;26.70;63.10;;;;;;935716;151;27440;-74
2022/07/03 05:26:24;;;;;;;1.95;1.70;;;27.40;61.50;;;;;;936199;151;27452;-70
2022/07/03 05:28:51;;;;;;;1.70;1.60;;;28.10;60.00;;;;;;935235;151;27465;-71
2022/07/03 05:31:17;;;;;;;1.85;1.75;;;28.70;58.90;;;;;;933851;151;27343;-70
2022/07/03 05:33:44;;;;;;;2.83;1.70;;;29.40;58.00;;;;;;935580;151;27346;-70
2022/07/03 05:36:10;;;;;;;2.47;1.67;;;30.00;57.20;;;;;;934943;151;27416;-74
2022/07/03 05:41:22;;;;;;;1.80;1.70;;;31.30;55.30;;;;;;935545;152;27493;-70
2022/07/03 05:43:48;;;;;;;1.98;1.80;;;32.00;54.20;;;;;;935693;151;27392;-70
2022/07/03 05:46:15;;;;;;;1.70;1.60;;;32.50;53.10;;;;;;934882;151;27423;-70
2022/07/03 05:48:41;;;;;;;3.83;1.67;;;33.10;52.20;;;;;;935927;152;27353;-71
2022/07/03 05:51:08;;;;;;;2.00;1.82;;;33.60;51.30;;;;;;936840;150;27413;-74
2022/07/03 05:53:35;;;;;;;1.90;1.80;;;34.10;50.30;;;;;;935557;151;27384;-71
2022/07/03 05:56:01;;;;;;;2.47;2.10;;;34.60;49.50;;;;;;936541;151;27445;-71
2022/07/03 05:58:28;;;;;;;2.22;2.00;;;35.10;48.70;;;;;;934075;150;27334;-70
2022/07/03 06:00:54;;;;;;;2.33;1.50;;;35.60;47.90;;;;;;933513;152;26331;-72
2022/07/03 06:03:21;;;;;;;1.90;1.80;;;36.10;47.00;;;;;;932209;152;27366;-74
2022/07/03 06:05:48;;;;;;;1.87;1.72;;;36.50;46.20;;;;;;932645;151;26281;-68
2022/07/03 06:08:14;;;;;;;2.42;1.67;;;36.90;45.50;;;;;;935259;152;26236;-67
2022/07/03 06:10:41;;;;;;;1.95;1.77;;;37.30;44.70;;;;;;936332;151;27454;-68
2022/07/03 06:13:08;;;;;;;1.70;1.60;;;37.70;44.00;;;;;;935457;152;26250;-69
2022/07/03 06:15:34;;;;;;;1.50;1.40;;;38.10;43.40;;;;;;936221;151;26303;-71
2022/07/03 06:18:01;;;;;;;2.05;1.62;;;38.50;42.90;;;;;;933700;151;26332;-69
2022/07/03 06:20:27;;;;;;;1.52;1.42;;;38.80;42.30;;;;;;933701;152;27455;-69
2022/07/03 06:22:54;;;;;;;2.75;1.57;;;39.30;41.70;;;;;;933838;151;26303;-68
2022/07/03 06:25:20;;;;;;;1.90;1.70;;;39.70;41.10;;;;;;933439;151;27376;-69
2022/07/03 06:27:47;;;;;;;2.47;2.00;;;40.10;40.50;;;;;;934366;151;26258;-69
2022/07/03 06:30:13;;;;;;;1.40;1.30;;;40.40;39.80;;;;;;933674;151;26297;-71
2022/07/03 06:32:40;;;;;;;1.40;1.30;;;40.80;39.40;;;;;;934704;151;26273;-68
2022/07/03 06:35:07;;;;;;;1.70;1.60;;;41.20;38.60;;;;;;932983;152;26261;-69
2022/07/03 06:37:33;;;;;;;1.80;1.70;;;41.50;38.00;;;;;;935634;151;26229;-68
2022/07/03 06:40:00;;;;;;;1.75;1.65;;;41.90;37.50;;;;;;934711;152;26269;-69
2022/07/03 06:42:26;;;;;;;1.82;1.40;;;42.20;37.10;;;;;;933464;151;26307;-71
2022/07/03 06:44:53;;;;;;;1.17;1.15;;;42.50;36.20;;;;;;933799;151;26390;-68
2022/07/03 06:47:20;;;;;;;2.37;1.40;;;42.90;35.90;;;;;;931462;152;26254;-69
2022/07/03 06:49:46;;;;;;;1.25;1.25;;;43.20;35.40;;;;;;936740;152;26306;-69
2022/07/03 06:52:13;;;;;;;1.37;1.12;;;43.70;34.90;;;;;;935556;152;26264;-68
2022/07/03 06:54:43;;;;;;;1.80;1.07;;;44.00;34.20;;;;;;934335;151;26214;-71
2022/07/03 06:57:06;;;;;;;1.27;1.05;;;44.40;33.60;;;;;;933767;152;26362;-69
2022/07/03 06:59:33;;;;;;;1.40;1.30;;;44.70;32.90;;;;;;933607;152;26257;-69
2022/07/03 07:01:59;;;;;;;0.88;0.88;;;45.10;32.30;;;;;;935726;151;26205;-68
2022/07/03 07:04:26;;;;;;;2.12;1.05;;;45.30;31.70;;;;;;934276;152;26242;-70
2022/07/03 07:06:52;;;;;;;1.00;1.00;;;45.60;31.40;;;;;;933212;151;26344;-69
2022/07/03 07:09:19;;;;;;;1.37;1.07;;;45.80;31.00;;;;;;933583;151;26342;-73
2022/07/03 07:11:45;;;;;;;1.07;0.98;;;46.00;30.60;;;;;;936738;151;27539;-69
2022/07/03 07:14:12;;;;;;;1.62;1.12;;;46.20;30.20;;;;;;934444;151;26363;-70
2022/07/03 07:16:39;;;;;;;1.45;1.30;;;46.40;29.90;;;;;;935296;151;26274;-70
2022/07/03 07:19:05;;;;;;;0.98;0.93;;;46.70;29.20;;;;;;933094;152;26243;-68
2022/07/03 07:21:32;;;;;;;1.20;0.90;;;46.80;29.50;;;;;;931052;152;26266;-71
2022/07/03 07:23:58;;;;;;;1.37;1.22;;;47.00;29.20;;;;;;933850;152;26281;-70
2022/07/03 07:26:25;;;;;;;2.42;1.50;;;47.20;28.90;;;;;;933338;152;26371;-69
2022/07/03 07:28:52;;;;;;;2.40;1.32;;;47.30;28.70;;;;;;931379;152;26210;-69
2022/07/03 07:31:18;;;;;;;1.02;1.00;;;47.50;28.60;;;;;;931498;152;26280;-69
2022/07/03 07:33:45;;;;;;;0.98;0.98;;;47.70;28.40;;;;;;933697;152;26250;-69
2022/07/03 07:36:11;;;;;;;1.25;1.17;;;47.90;28.10;;;;;;933493;152;26293;-68
2022/07/03 07:38:38;;;;;;;1.20;1.10;;;48.10;27.80;;;;;;930534;152;26347;-72
2022/07/03 07:41:05;;;;;;;0.90;0.90;;;48.20;27.50;;;;;;932867;152;26242;-70
2022/07/03 07:43:31;;;;;;;1.17;1.10;;;48.40;27.40;;;;;;921454;154;26239;-69
2022/07/03 07:45:58;;;;;;;1.90;1.12;;;48.40;27.10;;;;;;948101;150;26851;-71
2022/07/03 07:48:24;;;;;;;1.12;0.95;;;48.60;27.10;;;;;;945613;150;26660;-72
2022/07/03 07:50:51;;;;;;;1.17;1.07;;;48.70;26.90;;;;;;923562;153;26385;-69
2022/07/03 07:53:18;;;;;;;1.85;1.20;;;48.90;26.70;;;;;;946140;150;27768;-72
2022/07/03 07:55:44;;;;;;;1.35;1.12;;;49.00;26.40;;;;;;945857;150;26202;-69
2022/07/03 07:58:11;;;;;;;1.50;1.40;;;49.10;26.20;;;;;;946056;150;26335;-69
2022/07/03 08:05:35;;;;;;;1.40;1.30;;;49.10;26.00;;;;;;921753;154;26262;-70
2022/07/03 08:05:49;;;;;;;1.47;1.37;;;49.30;25.90;;;;;;942021;150;26402;-70
2022/07/03 08:08:16;;;;;;;2.37;1.55;;;49.50;25.90;;;;;;917023;154;26812;-69
2022/07/03 08:10:42;;;;;;;1.87;1.75;;;49.60;25.60;;;;;;943648;150;26220;-69
2022/07/03 08:13:09;;;;;;;2.25;1.77;;;49.70;25.40;;;;;;946475;150;26291;-73
2022/07/03 08:15:35;;;;;;;1.60;1.50;;;49.90;25.10;;;;;;921872;153;26346;-69
2022/07/03 08:18:02;;;;;;;1.62;1.30;;;50.00;25.00;;;;;;940950;150;26473;-72
2022/07/03 08:20:28;;;;;;;2.12;1.62;;;50.20;24.90;;;;;;947216;150;26299;-69
2022/07/03 08:22:55;;;;;;;1.90;1.80;;;50.30;25.00;;;;;;947614;150;26284;-70
2022/07/03 08:25:22;;;;;;;1.60;1.50;;;50.30;24.60;;;;;;945742;150;26314;-69
2022/07/03 08:27:48;;;;;;;1.50;1.40;;;50.40;24.40;;;;;;922150;154;26250;-69
2022/07/03 08:30:17;;;;;;;1.50;1.40;;;50.50;24.40;;;;;;944996;150;26337;-72
2022/07/03 08:32:41;;;;;;;1.22;1.12;;;50.60;24.60;;;;;;922974;154;26273;-69
2022/07/03 08:35:08;;;;;;;0.45;0.45;;;50.70;24.40;;;;;;917561;154;26811;-68
2022/07/03 08:37:35;;;;;;;0.57;0.57;;;50.80;24.00;;;;;;946115;150;26244;-70
2022/07/03 08:40:02;;;;;;;0.50;0.47;;;50.90;23.80;;;;;;918267;154;26345;-69
2022/07/03 08:42:28;;;;;;;1.32;0.50;;;51.10;23.90;;;;;;945093;150;26282;-71
2022/07/03 08:44:54;;;;;;;0.35;0.35;;;51.30;23.80;;;;;;944224;150;26274;-69
2022/07/03 08:47:21;;;;;;;0.37;0.37;;;51.30;23.40;;;;;;924182;154;26268;-68
2022/07/03 08:49:48;;;;;;;0.75;0.55;;;51.50;23.30;;;;;;948255;150;26350;-69
2022/07/03 08:52:14;;;;;;;0.85;0.60;;;51.60;23.10;;;;;;921111;154;26298;-70
2022/07/03 08:54:41;;;;;;;0.47;0.47;;;51.70;23.20;;;;;;944202;150;26357;-69
2022/07/03 08:57:07;;;;;;;1.17;0.35;;;51.80;23.10;;;;;;920607;154;26275;-72
2022/07/03 08:59:37;;;;;;;0.95;0.50;;;51.90;23.00;;;;;;947040;150;26331;-69
2022/07/03 09:02:04;;;;;;;0.95;0.30;;;52.00;22.90;;;;;;921487;154;26356;-70
2022/07/03 09:04:30;;;;;;;0.50;0.42;;;52.10;22.70;;;;;;944972;150;26211;-70
2022/07/03 09:06:57;;;;;;;1.05;0.40;;;52.20;22.60;;;;;;922003;154;26731;-68
2022/07/03 09:09:23;;;;;;;0.30;0.30;;;52.30;22.50;;;;;;941110;150;26318;-72
2022/07/03 09:11:50;;;;;;;0.30;0.30;;;52.40;22.40;;;;;;931148;153;26805;-72
2022/07/03 09:14:16;;;;;;;0.33;0.33;;;52.40;22.20;;;;;;943440;150;26250;-69
2022/07/03 09:16:43;;;;;;;0.50;0.40;;;52.40;22.10;;;;;;920363;154;26263;-70
2022/07/03 09:19:09;;;;;;;3.27;0.50;;;52.40;22.60;;;;;;948657;148;26300;-69
2022/07/03 09:21:39;;;;;;;2.75;0.60;;;52.30;22.10;;;;;;937246;151;26274;-72
2022/07/03 09:24:06;;;;;;;1.22;0.37;;;52.20;22.00;;;;;;935429;151;26337;-69
2022/07/03 09:26:32;;;;;;;1.25;0.47;;;52.20;22.10;;;;;;956601;148;28530;-69
2022/07/03 09:28:59;;;;;;;0.70;0.60;;;52.00;21.70;;;;;;954493;148;26206;-69
2022/07/03 09:31:25;;;;;;;0.50;0.50;;;51.90;21.70;;;;;;935556;151;26245;-69
2022/07/03 09:33:58;;;;;;;0.40;0.40;;;51.80;21.40;;;;;;935452;152;26266;-71
2022/07/03 09:36:45;;;;;;;0.60;0.30;;;51.70;21.90;;;;;;952262;148;26332;-69
2022/07/03 09:39:36;;;;;;;0.40;0.40;;;51.70;21.70;;;;;;939363;151;26379;-69
2022/07/03 09:42:05;;;;;;;0.47;0.45;;;51.50;21.70;;;;;;956885;148;26203;-69
2022/07/03 09:44:33;;;;;;;0.50;0.50;;;51.40;21.80;;;;;;938192;151;26243;-70
2022/07/03 09:47:11;;;;;;;0.35;0.35;;;51.20;21.80;;;;;;935341;151;26241;-72
2022/07/03 09:49:46;;;;;;;0.82;0.50;;;51.00;21.60;;;;;;933830;151;26306;-69
2022/07/03 09:52:31;;;;;;;0.50;0.50;;;50.80;21.60;;;;;;954359;148;26315;-70
2022/07/03 09:55:00;;;;;;;0.57;0.55;;;50.70;21.70;;;;;;936007;151;26386;-70
2022/07/03 09:57:29;;;;;;;1.75;0.47;;;50.50;21.60;;;;;;951612;148;26235;-70
2022/07/03 10:00:02;;;;;;;0.88;0.70;;;50.10;21.60;;;;;;936361;151;26265;-69
2022/07/03 10:02:28;;;;;;;0.95;0.50;;;49.90;21.70;;;;;;930933;151;26277;-70
2022/07/03 10:04:55;;;;;;;0.60;0.40;;;49.50;21.80;;;;;;955516;148;26321;-69
2022/07/03 10:07:21;;;;;;;0.40;0.40;;;49.30;21.70;;;;;;933649;151;26262;-69
2022/07/03 10:09:48;;;;;;;1.52;0.40;;;48.90;21.80;;;;;;955620;148;26255;-72
2022/07/03 10:12:15;;;;;;;0.40;0.40;;;48.60;21.80;;;;;;937723;151;26395;-68
2022/07/03 10:14:41;;;;;;;0.40;0.40;;;48.10;21.90;;;;;;938562;151;28521;-69
2022/07/03 10:17:08;;;;;;;1.55;0.62;;;47.70;22.00;;;;;;939101;151;26358;-69
2022/07/03 10:19:34;;;;;;;0.68;0.68;;;47.30;22.10;;;;;;936263;151;26172;-71
2022/07/03 10:22:01;;;;;;;0.50;0.50;;;46.90;22.10;;;;;;926072;152;26232;-72
2022/07/03 10:24:28;;;;;;;0.50;0.40;;;46.40;22.20;;;;;;918803;153;26269;-69
2022/07/03 10:26:54;;;;;;;0.50;0.50;;;45.90;22.20;;;;;;940907;149;26277;-70
2022/07/03 10:29:21;;;;;;;0.80;0.60;;;45.40;22.40;;;;;;919168;153;26173;-69
2022/07/03 10:31:47;;;;;;;2.15;0.60;;;45.00;22.40;;;;;;938768;149;26254;-70
2022/07/03 10:34:19;;;;;;;0.62;0.50;;;44.50;22.50;;;;;;941116;149;26204;-69
2022/07/03 10:36:46;;;;;;;2.75;0.65;;;44.00;22.70;;;;;;919739;152;26381;-68
2022/07/03 10:39:13;;;;;;;1.22;0.53;;;43.40;22.60;;;;;;943822;149;27326;-68
2022/07/03 10:47:46;;;;;;;0.50;0.50;;;41.80;23.40;;;;;;918722;152;26267;-69
2022/07/03 10:50:15;;;;;;;1.02;0.75;;;41.30;23.80;;;;;;941673;149;27815;-68
2022/07/03 10:52:42;;;;;;;1.50;0.72;;;40.70;24.10;;;;;;924097;152;27477;-71
2022/07/03 10:55:08;;;;;;;1.17;0.72;;;40.30;24.20;;;;;;919101;153;26371;-69
2022/07/03 10:57:37;;;;;;;0.68;0.68;;;39.90;24.90;;;;;;924486;152;27546;-69
2022/07/03 11:00:13;;;;;;;0.75;0.70;;;39.50;24.50;;;;;;928395;152;27454;-70
2022/07/03 11:02:40;;;;;;;0.50;0.50;;;39.20;24.80;;;;;;941748;150;27337;-69
2022/07/03 11:05:06;;;;;;;0.42;0.35;;;38.80;25.30;;;;;;926538;152;27327;-72
2022/07/03 11:07:36;;;;;;;0.40;0.40;;;38.50;25.40;;;;;;945272;149;27460;-69
2022/07/03 11:10:14;;;;;;;2.35;0.68;;;38.30;25.70;;;;;;939933;149;27289;-68
2022/07/03 11:13:07;;;;;;;0.40;0.40;;;38.10;26.00;;;;;;942187;150;27326;-69
2022/07/03 11:15:34;;;;;;;0.40;0.40;;;37.90;25.80;;;;;;920784;153;27337;-71
2022/07/03 11:18:06;;;;;;;0.75;0.60;;;37.70;26.00;;;;;;925757;152;27369;-68
2022/07/03 11:20:33;;;;;;;1.52;0.50;;;37.50;26.20;;;;;;916018;153;27483;-68
2022/07/03 11:23:30;;;;;;;0.65;0.65;;;37.30;26.10;;;;;;942333;149;27327;-68
2022/07/03 11:25:59;;;;;;;0.57;0.57;;;37.10;26.40;;;;;;944406;149;27383;-68
2022/07/03 11:28:32;;;;;;;0.75;0.42;;;36.80;26.50;;;;;;917388;153;27384;-69
2022/07/03 11:31:11;;;;;;;0.62;0.62;;;36.60;26.80;;;;;;938869;150;27452;-70
2022/07/03 11:33:43;;;;;;;2.52;0.60;;;36.30;26.90;;;;;;942799;149;28550;-68
2022/07/03 11:36:15;;;;;;;0.57;0.57;;;36.20;27.00;;;;;;915322;153;28178;-69
2022/07/03 11:38:42;;;;;;;0.60;0.60;;;36.00;27.30;;;;;;922953;152;27293;-70
2022/07/03 11:41:08;;;;;;;0.75;0.60;;;35.90;27.40;;;;;;943476;149;27324;-72
2022/07/03 11:43:35;;;;;;;0.98;0.60;;;35.80;27.50;;;;;;943840;150;27482;-69
2022/07/03 11:46:01;;;;;;;0.95;0.60;;;35.70;27.80;;;;;;939172;149;27316;-69
2022/07/03 11:48:28;;;;;;;0.68;0.68;;;35.50;27.90;;;;;;916709;153;27283;-68
2022/07/03 11:51:01;;;;;;;0.50;0.50;;;35.50;28.00;;;;;;938745;150;27372;-68
2022/07/03 11:53:27;;;;;;;0.70;0.60;;;35.40;28.20;;;;;;916629;152;27403;-73
2022/07/03 11:56:02;;;;;;;1.47;0.80;;;35.40;28.20;;;;;;941185;150;27364;-68
2022/07/03 11:58:44;;;;;;;2.35;0.70;;;35.40;28.30;;;;;;918084;153;28431;-68
2022/07/03 12:01:23;;;;;;;0.50;0.50;;;35.30;28.40;;;;;;939721;149;27295;-69
2022/07/03 12:03:49;;;;;;;2.75;0.50;;;35.30;28.40;;;;;;915748;153;27378;-69
2022/07/03 12:06:16;;;;;;;0.80;0.70;;;35.20;28.50;;;;;;940098;149;27342;-72
2022/07/03 12:08:46;;;;;;;2.58;0.68;;;35.20;28.60;;;;;;915350;153;27378;-68
2022/07/03 12:11:09;;;;;;;0.75;0.65;;;35.20;28.90;;;;;;942715;150;27256;-70
2022/07/03 12:13:36;;;;;;;1.50;0.68;;;35.20;28.70;;;;;;917365;153;27335;-68
2022/07/03 12:16:05;;;;;;;0.45;0.45;;;35.10;28.70;;;;;;942430;149;27320;-68
2022/07/03 12:18:46;;;;;;;1.22;0.50;;;35.10;28.70;;;;;;940271;149;27877;-72
2022/07/03 12:21:13;;;;;;;0.62;0.60;;;35.10;28.80;;;;;;925096;151;27426;-68
2022/07/03 12:23:45;;;;;;;2.12;0.70;;;35.00;28.90;;;;;;958203;148;28042;-69
2022/07/03 12:26:12;;;;;;;0.55;0.53;;;35.00;29.20;;;;;;936961;151;27449;-69
2022/07/03 12:28:39;;;;;;;1.60;0.88;;;35.00;29.20;;;;;;958610;148;27290;-69
2022/07/03 12:31:05;;;;;;;0.55;0.55;;;35.00;29.10;;;;;;936607;150;27461;-68
2022/07/03 12:33:35;;;;;;;0.68;0.60;;;35.00;29.20;;;;;;937431;153;27450;-69
2022/07/03 12:36:04;;;;;;;0.82;0.80;;;35.00;29.20;;;;;;934715;151;27366;-68
2022/07/03 12:38:31;;;;;;;0.82;0.72;;;35.00;29.20;;;;;;958495;148;27325;-68
2022/07/03 12:41:06;;;;;;;0.62;0.62;;;35.00;29.10;;;;;;942351;150;27765;-69
2022/07/03 12:43:36;;;;;;;8.03;0.70;;;35.10;29.40;;;;;;958903;148;27420;-68
2022/07/03 12:46:03;;;;;;;0.50;0.50;;;35.10;29.40;;;;;;939508;151;27387;-68
2022/07/03 12:48:29;;;;;;;0.33;0.33;;;35.10;29.20;;;;;;959180;147;27461;-69
2022/07/03 12:50:56;;;;;;;0.78;0.78;;;35.10;29.10;;;;;;945078;150;27380;-68
2022/07/03 12:53:28;;;;;;;1.25;0.47;;;35.10;29.00;;;;;;937924;151;27398;-69
2022/07/03 12:55:55;;;;;;;0.60;0.60;;;35.00;29.10;;;;;;959961;148;27315;-70
2022/07/03 13:01:25;;;;;;;0.70;0.47;;;35.00;29.40;;;;;;961284;148;27373;-68
2022/07/03 13:03:52;;;;;;;0.50;0.50;;;35.00;29.50;;;;;;959231;148;27395;-68
2022/07/03 13:06:18;;;;;;;1.25;0.70;;;35.10;28.90;;;;;;942517;151;27307;-68
2022/07/03 13:09:00;;;;;;;0.80;0.50;;;35.00;29.40;;;;;;958289;147;27288;-70
2022/07/03 13:11:35;;;;;;;0.55;0.50;;;35.10;29.40;;;;;;942125;150;27430;-69